sensor_id;sensor_type;location;lat;lon;timestamp;P1;durP1;ratioP1;P2;durP2;ratioP2
17725;SDS011;8983;53.156;17.960;2023-02-28T00:01:11;27.60;;;12.37;;
17725;SDS011;8983;53.156;17.960;2023-02-28T00:03:40;23.53;;;12.17;;
17725;SDS011;8983;53.156;17.960;2023-02-28T00:06:09;32.60;;;13.50;;
17725;SDS011;8983;53.156;17.960;2023-02-28T00:08:39;37.30;;;14.43;;
17725;SDS011;8983;53.156;17.960;2023-02-28T00:11:08;32.03;;;13.03;;
17725;SDS011;8983;53.156;17.960;2023-02-28T00:13:39;30.53;;;11.63;;
17725;SDS011;8983;53.156;17.960;2023-02-28T00:16:10;22.07;;;11.53;;
17725;SDS011;8983;53.156;17.960;2023-02-28T00:18:41;39.90;;;14.37;;
17725;SDS011;8983;53.156;17.960;2023-02-28T00:21:09;37.17;;;14.37;;
17725;SDS011;8983;53.156;17.960;2023-02-28T00:23:39;49.53;;;18.60;;
17725;SDS011;8983;53.156;17.960;2023-02-28T00:26:07;41.33;;;16.63;;
17725;SDS011;8983;53.156;17.960;2023-02-28T00:28:35;41.70;;;15.27;;
17725;SDS011;8983;53.156;17.960;2023-02-28T00:31:04;55.37;;;17.57;;
17725;SDS011;8983;53.156;17.960;2023-02-28T00:33:32;55.10;;;18.07;;
17725;SDS011;8983;53.156;17.960;2023-02-28T00:36:02;36.70;;;15.43;;
17725;SDS011;8983;53.156;17.960;2023-02-28T00:38:32;30.30;;;13.13;;
17725;SDS011;8983;53.156;17.960;2023-02-28T00:41:02;26.97;;;12.33;;
17725;SDS011;8983;53.156;17.960;2023-02-28T00:43:32;21.37;;;10.37;;
17725;SDS011;8983;53.156;17.960;2023-02-28T00:46:00;29.20;;;11.83;;
17725;SDS011;8983;53.156;17.960;2023-02-28T00:48:28;38.10;;;16.63;;
17725;SDS011;8983;53.156;17.960;2023-02-28T00:50:57;29.20;;;12.27;;
17725;SDS011;8983;53.156;17.960;2023-02-28T00:53:25;24.27;;;11.83;;
17725;SDS011;8983;53.156;17.960;2023-02-28T00:55:54;21.83;;;10.03;;
17725;SDS011;8983;53.156;17.960;2023-02-28T00:58:24;21.43;;;10.27;;
17725;SDS011;8983;53.156;17.960;2023-02-28T01:00:52;19.10;;;9.33;;
17725;SDS011;8983;53.156;17.960;2023-02-28T01:03:21;17.67;;;8.63;;
17725;SDS011;8983;53.156;17.960;2023-02-28T01:05:49;15.33;;;8.47;;
17725;SDS011;8983;53.156;17.960;2023-02-28T01:08:19;20.47;;;9.77;;
17725;SDS011;8983;53.156;17.960;2023-02-28T01:10:48;18.17;;;8.90;;
17725;SDS011;8983;53.156;17.960;2023-02-28T01:13:16;24.37;;;9.43;;
17725;SDS011;8983;53.156;17.960;2023-02-28T01:15:48;23.30;;;9.97;;
17725;SDS011;8983;53.156;17.960;2023-02-28T01:18:18;22.03;;;9.60;;
17725;SDS011;8983;53.156;17.960;2023-02-28T01:20:47;20.27;;;9.87;;
17725;SDS011;8983;53.156;17.960;2023-02-28T01:23:18;22.10;;;9.30;;
17725;SDS011;8983;53.156;17.960;2023-02-28T01:25:47;24.00;;;9.50;;
17725;SDS011;8983;53.156;17.960;2023-02-28T01:28:16;18.97;;;9.37;;
17725;SDS011;8983;53.156;17.960;2023-02-28T01:30:48;19.43;;;9.73;;
17725;SDS011;8983;53.156;17.960;2023-02-28T01:33:17;19.70;;;9.60;;
17725;SDS011;8983;53.156;17.960;2023-02-28T01:35:46;29.03;;;11.00;;
17725;SDS011;8983;53.156;17.960;2023-02-28T01:38:14;22.37;;;9.33;;
17725;SDS011;8983;53.156;17.960;2023-02-28T01:40:48;25.93;;;10.40;;
17725;SDS011;8983;53.156;17.960;2023-02-28T01:43:19;23.30;;;9.60;;
17725;SDS011;8983;53.156;17.960;2023-02-28T01:45:51;23.77;;;9.97;;
17725;SDS011;8983;53.156;17.960;2023-02-28T01:48:21;25.87;;;9.77;;
17725;SDS011;8983;53.156;17.960;2023-02-28T01:50:52;18.90;;;9.17;;
17725;SDS011;8983;53.156;17.960;2023-02-28T01:53:23;17.70;;;8.63;;
17725;SDS011;8983;53.156;17.960;2023-02-28T01:55:56;20.37;;;10.03;;
17725;SDS011;8983;53.156;17.960;2023-02-28T01:58:25;22.23;;;9.70;;
17725;SDS011;8983;53.156;17.960;2023-02-28T02:00:55;23.13;;;9.77;;
17725;SDS011;8983;53.156;17.960;2023-02-28T02:03:23;18.47;;;8.97;;
17725;SDS011;8983;53.156;17.960;2023-02-28T02:05:51;24.50;;;10.17;;
17725;SDS011;8983;53.156;17.960;2023-02-28T02:08:21;17.93;;;9.40;;
17725;SDS011;8983;53.156;17.960;2023-02-28T02:10:51;23.20;;;10.90;;
17725;SDS011;8983;53.156;17.960;2023-02-28T02:13:25;21.73;;;10.03;;
17725;SDS011;8983;53.156;17.960;2023-02-28T02:16:21;19.80;;;9.87;;
17725;SDS011;8983;53.156;17.960;2023-02-28T02:18:57;24.13;;;9.80;;
17725;SDS011;8983;53.156;17.960;2023-02-28T02:21:47;22.17;;;9.10;;
17725;SDS011;8983;53.156;17.960;2023-02-28T02:27:48;18.87;;;8.73;;
17725;SDS011;8983;53.156;17.960;2023-02-28T02:30:46;16.47;;;8.57;;
17725;SDS011;8983;53.156;17.960;2023-02-28T02:36:53;21.07;;;10.73;;
17725;SDS011;8983;53.156;17.960;2023-02-28T02:39:30;21.87;;;9.57;;
17725;SDS011;8983;53.156;17.960;2023-02-28T02:42:04;20.37;;;10.50;;
17725;SDS011;8983;53.156;17.960;2023-02-28T02:44:42;22.83;;;9.33;;
17725;SDS011;8983;53.156;17.960;2023-02-28T02:47:14;19.27;;;10.13;;
17725;SDS011;8983;53.156;17.960;2023-02-28T02:49:45;18.57;;;9.53;;
17725;SDS011;8983;53.156;17.960;2023-02-28T02:52:20;21.93;;;9.40;;
17725;SDS011;8983;53.156;17.960;2023-02-28T02:54:52;26.73;;;10.03;;
17725;SDS011;8983;53.156;17.960;2023-02-28T02:57:25;21.37;;;10.33;;
17725;SDS011;8983;53.156;17.960;2023-02-28T02:59:58;27.17;;;10.73;;
17725;SDS011;8983;53.156;17.960;2023-02-28T03:02:27;29.23;;;11.20;;
17725;SDS011;8983;53.156;17.960;2023-02-28T03:05:01;20.53;;;10.27;;
17725;SDS011;8983;53.156;17.960;2023-02-28T03:07:34;20.90;;;10.10;;
17725;SDS011;8983;53.156;17.960;2023-02-28T03:10:03;31.00;;;12.00;;
17725;SDS011;8983;53.156;17.960;2023-02-28T03:12:54;25.07;;;10.87;;
17725;SDS011;8983;53.156;17.960;2023-02-28T03:15:34;24.17;;;11.10;;
17725;SDS011;8983;53.156;17.960;2023-02-28T03:18:13;20.30;;;10.10;;
17725;SDS011;8983;53.156;17.960;2023-02-28T03:20:47;25.83;;;11.23;;
17725;SDS011;8983;53.156;17.960;2023-02-28T03:23:26;22.87;;;10.20;;
17725;SDS011;8983;53.156;17.960;2023-02-28T03:26:01;21.13;;;11.43;;
17725;SDS011;8983;53.156;17.960;2023-02-28T03:28:35;21.77;;;10.80;;
17725;SDS011;8983;53.156;17.960;2023-02-28T03:31:09;22.87;;;11.23;;
17725;SDS011;8983;53.156;17.960;2023-02-28T03:33:44;29.37;;;11.23;;
17725;SDS011;8983;53.156;17.960;2023-02-28T03:36:21;24.57;;;12.13;;
17725;SDS011;8983;53.156;17.960;2023-02-28T03:38:56;31.37;;;12.80;;
17725;SDS011;8983;53.156;17.960;2023-02-28T03:41:30;18.07;;;9.53;;
17725;SDS011;8983;53.156;17.960;2023-02-28T03:44:03;20.13;;;10.67;;
17725;SDS011;8983;53.156;17.960;2023-02-28T03:46:35;24.47;;;9.83;;
17725;SDS011;8983;53.156;17.960;2023-02-28T03:49:06;21.37;;;10.13;;
17725;SDS011;8983;53.156;17.960;2023-02-28T03:51:41;21.30;;;9.03;;
17725;SDS011;8983;53.156;17.960;2023-02-28T03:54:12;22.53;;;10.77;;
17725;SDS011;8983;53.156;17.960;2023-02-28T03:56:47;15.73;;;9.13;;
17725;SDS011;8983;53.156;17.960;2023-02-28T03:59:20;16.10;;;9.90;;
17725;SDS011;8983;53.156;17.960;2023-02-28T04:01:53;21.87;;;9.80;;
17725;SDS011;8983;53.156;17.960;2023-02-28T04:04:24;21.87;;;10.97;;
17725;SDS011;8983;53.156;17.960;2023-02-28T04:06:53;23.90;;;10.30;;
17725;SDS011;8983;53.156;17.960;2023-02-28T04:09:30;24.00;;;10.73;;
17725;SDS011;8983;53.156;17.960;2023-02-28T04:11:59;22.67;;;10.60;;
17725;SDS011;8983;53.156;17.960;2023-02-28T04:14:28;29.50;;;12.67;;
17725;SDS011;8983;53.156;17.960;2023-02-28T04:16:57;25.43;;;12.27;;
17725;SDS011;8983;53.156;17.960;2023-02-28T04:19:25;24.53;;;11.27;;
17725;SDS011;8983;53.156;17.960;2023-02-28T04:21:53;35.27;;;12.20;;
17725;SDS011;8983;53.156;17.960;2023-02-28T04:24:21;24.80;;;10.97;;
17725;SDS011;8983;53.156;17.960;2023-02-28T04:26:52;19.70;;;10.67;;
17725;SDS011;8983;53.156;17.960;2023-02-28T04:29:23;24.57;;;11.97;;
17725;SDS011;8983;53.156;17.960;2023-02-28T04:31:52;32.37;;;13.17;;
17725;SDS011;8983;53.156;17.960;2023-02-28T04:34:21;28.00;;;12.73;;
17725;SDS011;8983;53.156;17.960;2023-02-28T04:36:49;35.67;;;13.53;;
17725;SDS011;8983;53.156;17.960;2023-02-28T04:39:37;32.07;;;12.53;;
17725;SDS011;8983;53.156;17.960;2023-02-28T04:42:07;37.47;;;13.60;;
17725;SDS011;8983;53.156;17.960;2023-02-28T04:44:35;26.63;;;12.70;;
17725;SDS011;8983;53.156;17.960;2023-02-28T04:47:03;22.73;;;12.40;;
17725;SDS011;8983;53.156;17.960;2023-02-28T04:49:31;27.30;;;12.17;;
17725;SDS011;8983;53.156;17.960;2023-02-28T04:51:59;32.77;;;13.27;;
17725;SDS011;8983;53.156;17.960;2023-02-28T04:54:28;31.00;;;15.13;;
17725;SDS011;8983;53.156;17.960;2023-02-28T04:56:56;29.67;;;13.53;;
17725;SDS011;8983;53.156;17.960;2023-02-28T04:59:25;28.03;;;12.33;;
17725;SDS011;8983;53.156;17.960;2023-02-28T05:01:53;24.97;;;13.07;;
17725;SDS011;8983;53.156;17.960;2023-02-28T05:04:21;29.97;;;11.70;;
17725;SDS011;8983;53.156;17.960;2023-02-28T05:06:50;26.47;;;12.63;;
17725;SDS011;8983;53.156;17.960;2023-02-28T05:09:18;29.10;;;12.63;;
17725;SDS011;8983;53.156;17.960;2023-02-28T05:11:46;22.07;;;12.03;;
17725;SDS011;8983;53.156;17.960;2023-02-28T05:14:14;26.90;;;11.10;;
17725;SDS011;8983;53.156;17.960;2023-02-28T05:16:44;26.73;;;11.63;;
17725;SDS011;8983;53.156;17.960;2023-02-28T05:19:12;20.07;;;11.87;;
17725;SDS011;8983;53.156;17.960;2023-02-28T05:21:41;23.97;;;11.53;;
17725;SDS011;8983;53.156;17.960;2023-02-28T05:24:10;25.27;;;11.87;;
17725;SDS011;8983;53.156;17.960;2023-02-28T05:26:40;24.23;;;12.07;;
17725;SDS011;8983;53.156;17.960;2023-02-28T05:29:10;28.57;;;12.50;;
17725;SDS011;8983;53.156;17.960;2023-02-28T05:31:38;24.43;;;11.77;;
17725;SDS011;8983;53.156;17.960;2023-02-28T05:34:08;22.00;;;11.47;;
17725;SDS011;8983;53.156;17.960;2023-02-28T05:36:38;26.93;;;12.33;;
17725;SDS011;8983;53.156;17.960;2023-02-28T05:39:07;25.60;;;12.03;;
17725;SDS011;8983;53.156;17.960;2023-02-28T05:41:39;24.97;;;11.93;;
17725;SDS011;8983;53.156;17.960;2023-02-28T05:44:08;29.20;;;11.50;;
17725;SDS011;8983;53.156;17.960;2023-02-28T05:46:36;26.27;;;12.47;;
17725;SDS011;8983;53.156;17.960;2023-02-28T05:49:05;28.73;;;12.47;;
17725;SDS011;8983;53.156;17.960;2023-02-28T05:51:35;31.03;;;12.60;;
17725;SDS011;8983;53.156;17.960;2023-02-28T05:54:06;29.67;;;12.63;;
17725;SDS011;8983;53.156;17.960;2023-02-28T05:56:35;25.17;;;11.70;;
17725;SDS011;8983;53.156;17.960;2023-02-28T05:59:05;25.93;;;11.77;;
17725;SDS011;8983;53.156;17.960;2023-02-28T06:01:34;27.33;;;11.07;;
17725;SDS011;8983;53.156;17.960;2023-02-28T06:04:03;29.40;;;12.33;;
17725;SDS011;8983;53.156;17.960;2023-02-28T06:06:36;24.73;;;13.27;;
17725;SDS011;8983;53.156;17.960;2023-02-28T06:09:05;30.73;;;13.23;;
17725;SDS011;8983;53.156;17.960;2023-02-28T06:11:33;24.27;;;12.33;;
17725;SDS011;8983;53.156;17.960;2023-02-28T06:14:01;27.67;;;12.97;;
17725;SDS011;8983;53.156;17.960;2023-02-28T06:16:31;28.73;;;13.33;;
17725;SDS011;8983;53.156;17.960;2023-02-28T06:19:01;26.03;;;13.60;;
17725;SDS011;8983;53.156;17.960;2023-02-28T06:21:30;35.70;;;14.13;;
17725;SDS011;8983;53.156;17.960;2023-02-28T06:24:00;43.73;;;15.40;;
17725;SDS011;8983;53.156;17.960;2023-02-28T06:26:29;34.57;;;14.77;;
17725;SDS011;8983;53.156;17.960;2023-02-28T06:28:57;29.40;;;15.13;;
17725;SDS011;8983;53.156;17.960;2023-02-28T06:31:26;32.57;;;14.20;;
17725;SDS011;8983;53.156;17.960;2023-02-28T06:33:56;35.90;;;14.57;;
17725;SDS011;8983;53.156;17.960;2023-02-28T06:36:24;26.67;;;14.73;;
17725;SDS011;8983;53.156;17.960;2023-02-28T06:38:52;27.63;;;14.23;;
17725;SDS011;8983;53.156;17.960;2023-02-28T06:41:23;34.17;;;14.67;;
17725;SDS011;8983;53.156;17.960;2023-02-28T06:43:54;43.57;;;14.73;;
17725;SDS011;8983;53.156;17.960;2023-02-28T06:46:22;32.60;;;13.67;;
17725;SDS011;8983;53.156;17.960;2023-02-28T06:48:51;37.23;;;16.10;;
17725;SDS011;8983;53.156;17.960;2023-02-28T06:51:19;26.90;;;14.30;;
17725;SDS011;8983;53.156;17.960;2023-02-28T06:53:48;35.17;;;14.20;;
17725;SDS011;8983;53.156;17.960;2023-02-28T06:56:17;29.63;;;15.67;;
17725;SDS011;8983;53.156;17.960;2023-02-28T06:58:48;27.93;;;14.23;;
17725;SDS011;8983;53.156;17.960;2023-02-28T07:01:19;26.07;;;12.33;;
17725;SDS011;8983;53.156;17.960;2023-02-28T07:03:49;25.53;;;13.13;;
17725;SDS011;8983;53.156;17.960;2023-02-28T07:06:18;24.73;;;13.27;;
17725;SDS011;8983;53.156;17.960;2023-02-28T07:08:49;22.93;;;12.13;;
17725;SDS011;8983;53.156;17.960;2023-02-28T07:11:18;23.23;;;11.23;;
17725;SDS011;8983;53.156;17.960;2023-02-28T07:13:47;29.43;;;13.57;;
17725;SDS011;8983;53.156;17.960;2023-02-28T07:16:15;27.93;;;11.97;;
17725;SDS011;8983;53.156;17.960;2023-02-28T07:18:44;22.47;;;11.40;;
17725;SDS011;8983;53.156;17.960;2023-02-28T07:21:12;29.90;;;11.63;;
17725;SDS011;8983;53.156;17.960;2023-02-28T07:23:40;26.87;;;13.07;;
17725;SDS011;8983;53.156;17.960;2023-02-28T07:26:11;25.70;;;13.53;;
17725;SDS011;8983;53.156;17.960;2023-02-28T07:28:41;30.20;;;13.17;;
17725;SDS011;8983;53.156;17.960;2023-02-28T07:31:11;26.20;;;13.33;;
17725;SDS011;8983;53.156;17.960;2023-02-28T07:33:41;33.07;;;14.20;;
17725;SDS011;8983;53.156;17.960;2023-02-28T07:36:11;33.43;;;16.70;;
17725;SDS011;8983;53.156;17.960;2023-02-28T07:38:41;39.10;;;17.50;;
17725;SDS011;8983;53.156;17.960;2023-02-28T07:41:13;32.30;;;14.77;;
17725;SDS011;8983;53.156;17.960;2023-02-28T07:43:42;33.97;;;14.93;;
17725;SDS011;8983;53.156;17.960;2023-02-28T07:46:13;31.43;;;13.80;;
17725;SDS011;8983;53.156;17.960;2023-02-28T07:48:42;29.33;;;13.40;;
17725;SDS011;8983;53.156;17.960;2023-02-28T07:51:11;26.43;;;13.47;;
17725;SDS011;8983;53.156;17.960;2023-02-28T07:53:40;26.37;;;12.63;;
17725;SDS011;8983;53.156;17.960;2023-02-28T07:56:08;27.67;;;12.73;;
17725;SDS011;8983;53.156;17.960;2023-02-28T07:58:37;31.30;;;13.53;;
17725;SDS011;8983;53.156;17.960;2023-02-28T08:01:05;26.53;;;12.90;;
17725;SDS011;8983;53.156;17.960;2023-02-28T08:03:36;28.10;;;13.00;;
17725;SDS011;8983;53.156;17.960;2023-02-28T08:06:05;27.17;;;12.10;;
17725;SDS011;8983;53.156;17.960;2023-02-28T08:08:34;31.30;;;13.00;;
17725;SDS011;8983;53.156;17.960;2023-02-28T08:11:03;28.73;;;13.50;;
17725;SDS011;8983;53.156;17.960;2023-02-28T08:13:31;31.30;;;14.03;;
17725;SDS011;8983;53.156;17.960;2023-02-28T08:16:00;26.23;;;12.60;;
17725;SDS011;8983;53.156;17.960;2023-02-28T08:18:29;26.43;;;13.90;;
17725;SDS011;8983;53.156;17.960;2023-02-28T08:20:58;26.67;;;13.10;;
17725;SDS011;8983;53.156;17.960;2023-02-28T08:23:26;25.63;;;12.53;;
17725;SDS011;8983;53.156;17.960;2023-02-28T08:25:55;25.30;;;12.40;;
17725;SDS011;8983;53.156;17.960;2023-02-28T08:28:23;24.83;;;11.77;;
17725;SDS011;8983;53.156;17.960;2023-02-28T08:30:52;21.27;;;10.77;;
17725;SDS011;8983;53.156;17.960;2023-02-28T08:33:21;27.87;;;11.07;;
17725;SDS011;8983;53.156;17.960;2023-02-28T08:35:51;23.93;;;12.00;;
17725;SDS011;8983;53.156;17.960;2023-02-28T08:38:22;22.13;;;11.17;;
17725;SDS011;8983;53.156;17.960;2023-02-28T08:40:56;23.20;;;11.27;;
17725;SDS011;8983;53.156;17.960;2023-02-28T08:43:25;23.90;;;11.40;;
17725;SDS011;8983;53.156;17.960;2023-02-28T08:45:55;21.93;;;10.13;;
17725;SDS011;8983;53.156;17.960;2023-02-28T08:48:24;18.33;;;9.67;;
17725;SDS011;8983;53.156;17.960;2023-02-28T08:50:55;20.63;;;10.13;;
17725;SDS011;8983;53.156;17.960;2023-02-28T08:53:34;15.10;;;8.33;;
17725;SDS011;8983;53.156;17.960;2023-02-28T08:56:03;12.93;;;6.73;;
17725;SDS011;8983;53.156;17.960;2023-02-28T08:58:33;10.17;;;6.53;;
17725;SDS011;8983;53.156;17.960;2023-02-28T09:01:07;13.10;;;7.00;;
17725;SDS011;8983;53.156;17.960;2023-02-28T09:03:36;12.83;;;6.93;;
17725;SDS011;8983;53.156;17.960;2023-02-28T09:06:05;12.90;;;6.67;;
17725;SDS011;8983;53.156;17.960;2023-02-28T09:08:34;10.63;;;5.43;;
17725;SDS011;8983;53.156;17.960;2023-02-28T09:11:03;5.73;;;4.40;;
17725;SDS011;8983;53.156;17.960;2023-02-28T09:13:32;10.60;;;5.37;;
17725;SDS011;8983;53.156;17.960;2023-02-28T09:16:00;7.90;;;4.40;;
17725;SDS011;8983;53.156;17.960;2023-02-28T09:18:30;9.57;;;5.27;;
17725;SDS011;8983;53.156;17.960;2023-02-28T09:20:58;5.03;;;3.33;;
17725;SDS011;8983;53.156;17.960;2023-02-28T09:23:26;3.80;;;2.87;;
17725;SDS011;8983;53.156;17.960;2023-02-28T09:25:56;3.80;;;2.70;;
17725;SDS011;8983;53.156;17.960;2023-02-28T09:28:24;5.10;;;2.97;;
17725;SDS011;8983;53.156;17.960;2023-02-28T09:30:53;5.20;;;2.90;;
17725;SDS011;8983;53.156;17.960;2023-02-28T09:33:23;3.30;;;2.40;;
17725;SDS011;8983;53.156;17.960;2023-02-28T09:35:57;7.50;;;2.83;;
17725;SDS011;8983;53.156;17.960;2023-02-28T09:38:26;6.87;;;3.80;;
17725;SDS011;8983;53.156;17.960;2023-02-28T09:40:56;7.13;;;3.67;;
17725;SDS011;8983;53.156;17.960;2023-02-28T09:43:27;5.73;;;3.57;;
17725;SDS011;8983;53.156;17.960;2023-02-28T09:46:02;5.40;;;3.50;;
17725;SDS011;8983;53.156;17.960;2023-02-28T09:48:39;5.33;;;3.10;;
17725;SDS011;8983;53.156;17.960;2023-02-28T09:51:13;6.00;;;3.13;;
17725;SDS011;8983;53.156;17.960;2023-02-28T09:53:49;3.53;;;3.00;;
17725;SDS011;8983;53.156;17.960;2023-02-28T09:56:28;4.97;;;2.77;;
17725;SDS011;8983;53.156;17.960;2023-02-28T09:59:01;4.93;;;3.10;;
17725;SDS011;8983;53.156;17.960;2023-02-28T10:01:34;3.67;;;2.80;;
17725;SDS011;8983;53.156;17.960;2023-02-28T10:04:08;3.87;;;3.13;;
17725;SDS011;8983;53.156;17.960;2023-02-28T10:06:44;6.47;;;3.53;;
17725;SDS011;8983;53.156;17.960;2023-02-28T10:09:17;7.17;;;3.40;;
17725;SDS011;8983;53.156;17.960;2023-02-28T10:11:52;4.50;;;3.50;;
17725;SDS011;8983;53.156;17.960;2023-02-28T10:14:24;3.87;;;3.10;;
17725;SDS011;8983;53.156;17.960;2023-02-28T10:16:56;4.17;;;2.70;;
17725;SDS011;8983;53.156;17.960;2023-02-28T10:19:28;4.43;;;3.30;;
17725;SDS011;8983;53.156;17.960;2023-02-28T10:22:01;4.73;;;3.10;;
17725;SDS011;8983;53.156;17.960;2023-02-28T10:24:35;4.70;;;3.10;;
17725;SDS011;8983;53.156;17.960;2023-02-28T10:27:13;4.47;;;3.17;;
17725;SDS011;8983;53.156;17.960;2023-02-28T10:29:43;5.80;;;3.40;;
17725;SDS011;8983;53.156;17.960;2023-02-28T10:32:12;4.40;;;3.27;;
17725;SDS011;8983;53.156;17.960;2023-02-28T10:34:43;3.10;;;2.50;;
17725;SDS011;8983;53.156;17.960;2023-02-28T10:37:12;4.07;;;2.80;;
17725;SDS011;8983;53.156;17.960;2023-02-28T10:39:42;4.57;;;3.00;;
17725;SDS011;8983;53.156;17.960;2023-02-28T10:42:23;4.07;;;2.97;;
17725;SDS011;8983;53.156;17.960;2023-02-28T10:45:06;4.30;;;2.67;;
17725;SDS011;8983;53.156;17.960;2023-02-28T10:47:41;5.10;;;2.73;;
17725;SDS011;8983;53.156;17.960;2023-02-28T10:50:28;4.47;;;3.20;;
17725;SDS011;8983;53.156;17.960;2023-02-28T10:53:09;6.07;;;2.70;;
17725;SDS011;8983;53.156;17.960;2023-02-28T10:55:59;5.27;;;2.93;;
17725;SDS011;8983;53.156;17.960;2023-02-28T10:58:30;3.63;;;2.73;;
17725;SDS011;8983;53.156;17.960;2023-02-28T11:01:12;5.63;;;2.93;;
17725;SDS011;8983;53.156;17.960;2023-02-28T11:03:42;4.40;;;3.03;;
17725;SDS011;8983;53.156;17.960;2023-02-28T11:06:13;3.93;;;2.90;;
17725;SDS011;8983;53.156;17.960;2023-02-28T11:08:48;5.73;;;2.90;;
17725;SDS011;8983;53.156;17.960;2023-02-28T11:11:19;5.70;;;2.90;;
17725;SDS011;8983;53.156;17.960;2023-02-28T11:13:53;4.13;;;2.60;;
17725;SDS011;8983;53.156;17.960;2023-02-28T11:16:30;7.10;;;3.60;;
17725;SDS011;8983;53.156;17.960;2023-02-28T11:19:01;3.27;;;2.63;;
17725;SDS011;8983;53.156;17.960;2023-02-28T11:21:31;5.17;;;3.17;;
17725;SDS011;8983;53.156;17.960;2023-02-28T11:24:02;5.83;;;3.17;;
17725;SDS011;8983;53.156;17.960;2023-02-28T11:26:41;5.33;;;3.30;;
17725;SDS011;8983;53.156;17.960;2023-02-28T11:29:19;4.77;;;3.20;;
17725;SDS011;8983;53.156;17.960;2023-02-28T11:32:00;5.53;;;3.17;;
17725;SDS011;8983;53.156;17.960;2023-02-28T11:34:40;5.47;;;2.83;;
17725;SDS011;8983;53.156;17.960;2023-02-28T11:37:10;6.40;;;3.13;;
17725;SDS011;8983;53.156;17.960;2023-02-28T11:39:40;5.43;;;2.80;;
17725;SDS011;8983;53.156;17.960;2023-02-28T11:42:19;4.20;;;3.03;;
17725;SDS011;8983;53.156;17.960;2023-02-28T11:45:07;4.60;;;3.13;;
17725;SDS011;8983;53.156;17.960;2023-02-28T11:47:45;5.47;;;3.10;;
17725;SDS011;8983;53.156;17.960;2023-02-28T11:50:39;5.70;;;3.20;;
17725;SDS011;8983;53.156;17.960;2023-02-28T11:53:19;4.73;;;3.23;;
17725;SDS011;8983;53.156;17.960;2023-02-28T11:55:55;3.97;;;3.03;;
17725;SDS011;8983;53.156;17.960;2023-02-28T11:58:31;3.37;;;3.07;;
17725;SDS011;8983;53.156;17.960;2023-02-28T12:01:12;7.70;;;3.57;;
17725;SDS011;8983;53.156;17.960;2023-02-28T12:03:52;4.27;;;3.10;;
17725;SDS011;8983;53.156;17.960;2023-02-28T12:06:31;4.40;;;2.77;;
17725;SDS011;8983;53.156;17.960;2023-02-28T12:09:13;5.70;;;2.80;;
17725;SDS011;8983;53.156;17.960;2023-02-28T12:11:58;3.43;;;3.07;;
17725;SDS011;8983;53.156;17.960;2023-02-28T12:14:36;4.00;;;3.17;;
17725;SDS011;8983;53.156;17.960;2023-02-28T12:17:21;4.80;;;3.23;;
17725;SDS011;8983;53.156;17.960;2023-02-28T12:19:59;4.33;;;3.07;;
17725;SDS011;8983;53.156;17.960;2023-02-28T12:22:37;6.87;;;2.90;;
17725;SDS011;8983;53.156;17.960;2023-02-28T12:28:12;3.30;;;2.77;;
17725;SDS011;8983;53.156;17.960;2023-02-28T12:30:44;5.23;;;3.33;;
17725;SDS011;8983;53.156;17.960;2023-02-28T12:33:20;5.70;;;3.00;;
17725;SDS011;8983;53.156;17.960;2023-02-28T12:35:52;5.33;;;3.00;;
17725;SDS011;8983;53.156;17.960;2023-02-28T12:38:24;4.73;;;3.30;;
17725;SDS011;8983;53.156;17.960;2023-02-28T12:40:56;4.63;;;2.77;;
17725;SDS011;8983;53.156;17.960;2023-02-28T12:43:30;6.53;;;3.63;;
17725;SDS011;8983;53.156;17.960;2023-02-28T12:46:01;4.20;;;3.10;;
17725;SDS011;8983;53.156;17.960;2023-02-28T12:48:38;5.67;;;3.37;;
17725;SDS011;8983;53.156;17.960;2023-02-28T12:51:09;7.73;;;3.40;;
17725;SDS011;8983;53.156;17.960;2023-02-28T12:53:43;4.77;;;3.20;;
17725;SDS011;8983;53.156;17.960;2023-02-28T12:56:22;4.20;;;3.27;;
17725;SDS011;8983;53.156;17.960;2023-02-28T12:58:59;6.30;;;3.37;;
17725;SDS011;8983;53.156;17.960;2023-02-28T13:01:42;4.07;;;3.00;;
17725;SDS011;8983;53.156;17.960;2023-02-28T13:04:42;3.93;;;3.03;;
17725;SDS011;8983;53.156;17.960;2023-02-28T13:07:38;7.97;;;3.40;;
17725;SDS011;8983;53.156;17.960;2023-02-28T13:10:19;4.60;;;2.77;;
17725;SDS011;8983;53.156;17.960;2023-02-28T13:12:48;5.57;;;3.27;;
17725;SDS011;8983;53.156;17.960;2023-02-28T13:15:21;5.77;;;2.77;;
17725;SDS011;8983;53.156;17.960;2023-02-28T13:17:52;5.30;;;3.27;;
17725;SDS011;8983;53.156;17.960;2023-02-28T13:20:24;4.90;;;2.93;;
17725;SDS011;8983;53.156;17.960;2023-02-28T13:22:54;5.13;;;3.30;;
17725;SDS011;8983;53.156;17.960;2023-02-28T13:34:40;4.33;;;3.30;;
17725;SDS011;8983;53.156;17.960;2023-02-28T13:40:22;6.17;;;3.10;;
17725;SDS011;8983;53.156;17.960;2023-02-28T13:42:56;6.10;;;3.53;;
17725;SDS011;8983;53.156;17.960;2023-02-28T13:45:27;5.43;;;3.77;;
17725;SDS011;8983;53.156;17.960;2023-02-28T13:48:03;5.47;;;3.40;;
17725;SDS011;8983;53.156;17.960;2023-02-28T13:50:33;5.40;;;3.50;;
17725;SDS011;8983;53.156;17.960;2023-02-28T13:56:29;8.23;;;4.63;;
17725;SDS011;8983;53.156;17.960;2023-02-28T13:59:12;4.60;;;3.50;;
17725;SDS011;8983;53.156;17.960;2023-02-28T14:02:09;9.57;;;3.90;;
17725;SDS011;8983;53.156;17.960;2023-02-28T14:05:00;4.20;;;2.87;;
17725;SDS011;8983;53.156;17.960;2023-02-28T14:07:30;5.50;;;3.27;;
17725;SDS011;8983;53.156;17.960;2023-02-28T14:10:05;5.33;;;3.50;;
17725;SDS011;8983;53.156;17.960;2023-02-28T14:12:56;5.80;;;4.33;;
17725;SDS011;8983;53.156;17.960;2023-02-28T14:15:48;4.97;;;3.20;;
17725;SDS011;8983;53.156;17.960;2023-02-28T14:18:24;6.43;;;4.63;;
17725;SDS011;8983;53.156;17.960;2023-02-28T14:20:58;6.57;;;4.40;;
17725;SDS011;8983;53.156;17.960;2023-02-28T14:23:46;5.40;;;3.90;;
17725;SDS011;8983;53.156;17.960;2023-02-28T14:27:00;5.67;;;3.33;;
17725;SDS011;8983;53.156;17.960;2023-02-28T14:29:42;5.03;;;3.47;;
17725;SDS011;8983;53.156;17.960;2023-02-28T14:32:35;4.40;;;3.13;;
17725;SDS011;8983;53.156;17.960;2023-02-28T14:35:15;4.97;;;3.30;;
17725;SDS011;8983;53.156;17.960;2023-02-28T14:37:51;5.33;;;2.87;;
17725;SDS011;8983;53.156;17.960;2023-02-28T14:40:24;7.60;;;5.07;;
17725;SDS011;8983;53.156;17.960;2023-02-28T14:42:56;8.00;;;4.40;;
17725;SDS011;8983;53.156;17.960;2023-02-28T14:45:28;6.47;;;4.30;;
17725;SDS011;8983;53.156;17.960;2023-02-28T14:47:58;5.13;;;3.47;;
17725;SDS011;8983;53.156;17.960;2023-02-28T14:50:29;5.20;;;3.47;;
17725;SDS011;8983;53.156;17.960;2023-02-28T14:52:59;5.70;;;3.30;;
17725;SDS011;8983;53.156;17.960;2023-02-28T14:55:28;6.17;;;3.33;;
17725;SDS011;8983;53.156;17.960;2023-02-28T14:57:58;3.90;;;3.23;;
17725;SDS011;8983;53.156;17.960;2023-02-28T15:00:30;4.13;;;3.40;;
17725;SDS011;8983;53.156;17.960;2023-02-28T15:03:00;10.60;;;5.27;;
17725;SDS011;8983;53.156;17.960;2023-02-28T15:05:50;9.57;;;5.47;;
17725;SDS011;8983;53.156;17.960;2023-02-28T15:08:19;7.87;;;3.30;;
17725;SDS011;8983;53.156;17.960;2023-02-28T15:10:52;4.30;;;2.70;;
17725;SDS011;8983;53.156;17.960;2023-02-28T15:13:22;4.20;;;2.80;;
17725;SDS011;8983;53.156;17.960;2023-02-28T15:15:55;4.77;;;3.47;;
17725;SDS011;8983;53.156;17.960;2023-02-28T15:18:30;5.83;;;4.27;;
17725;SDS011;8983;53.156;17.960;2023-02-28T15:21:05;4.40;;;3.40;;
17725;SDS011;8983;53.156;17.960;2023-02-28T15:23:35;5.07;;;3.40;;
17725;SDS011;8983;53.156;17.960;2023-02-28T15:26:04;5.93;;;4.63;;
17725;SDS011;8983;53.156;17.960;2023-02-28T15:28:33;5.00;;;3.57;;
17725;SDS011;8983;53.156;17.960;2023-02-28T15:31:03;7.90;;;4.03;;